sensor_id;sensor_type;location;lat;lon;timestamp;P1;P2;P0
76784;PMS7003;66893;44.316;0.092;2023-08-20T00:01:49;4.00;4.00;3.25
76784;PMS7003;66893;44.316;0.092;2023-08-20T00:04:22;3.00;3.00;2.00
76784;PMS7003;66893;44.316;0.092;2023-08-20T00:06:51;4.00;4.00;3.00
76784;PMS7003;66893;44.316;0.092;2023-08-20T00:09:17;3.25;3.25;3.00
76784;PMS7003;66893;44.316;0.092;2023-08-20T00:11:42;3.00;3.00;2.50
76784;PMS7003;66893;44.316;0.092;2023-08-20T00:14:08;3.75;3.00;3.00
76784;PMS7003;66893;44.316;0.092;2023-08-20T00:16:40;4.00;3.00;2.75
76784;PMS7003;66893;44.316;0.092;2023-08-20T00:19:05;4.00;4.00;3.00
76784;PMS7003;66893;44.316;0.092;2023-08-20T00:21:32;4.25;3.00;2.50
76784;PMS7003;66893;44.316;0.092;2023-08-20T00:23:58;3.00;3.00;2.75
76784;PMS7003;66893;44.316;0.092;2023-08-20T00:26:23;2.25;2.25;2.00
76784;PMS7003;66893;44.316;0.092;2023-08-20T00:28:49;5.75;4.00;3.00
76784;PMS7003;66893;44.316;0.092;2023-08-20T00:31:14;2.25;2.25;2.00
76784;PMS7003;66893;44.316;0.092;2023-08-20T00:33:40;3.75;3.75;3.00
76784;PMS7003;66893;44.316;0.092;2023-08-20T00:36:05;3.75;3.75;3.00
76784;PMS7003;66893;44.316;0.092;2023-08-20T00:38:31;4.00;4.00;3.00
76784;PMS7003;66893;44.316;0.092;2023-08-20T00:40:56;3.00;3.00;2.00
76784;PMS7003;66893;44.316;0.092;2023-08-20T00:43:21;3.25;3.25;2.25
76784;PMS7003;66893;44.316;0.092;2023-08-20T00:45:47;3.75;3.75;2.25
76784;PMS7003;66893;44.316;0.092;2023-08-20T00:48:13;3.25;2.75;2.00
76784;PMS7003;66893;44.316;0.092;2023-08-20T00:50:39;5.00;4.75;3.00
76784;PMS7003;66893;44.316;0.092;2023-08-20T00:53:06;4.25;3.00;2.00
76784;PMS7003;66893;44.316;0.092;2023-08-20T00:55:33;3.00;3.00;2.75
76784;PMS7003;66893;44.316;0.092;2023-08-20T00:57:58;4.00;2.00;2.00
76784;PMS7003;66893;44.316;0.092;2023-08-20T01:00:24;2.00;2.00;1.25
76784;PMS7003;66893;44.316;0.092;2023-08-20T01:02:50;3.00;2.25;1.75
76784;PMS7003;66893;44.316;0.092;2023-08-20T01:05:16;2.00;2.00;2.00
76784;PMS7003;66893;44.316;0.092;2023-08-20T01:13:03;3.25;3.25;3.25
76784;PMS7003;66893;44.316;0.092;2023-08-20T01:15:29;5.25;3.00;2.00
76784;PMS7003;66893;44.316;0.092;2023-08-20T01:17:55;4.00;3.25;2.00
76784;PMS7003;66893;44.316;0.092;2023-08-20T01:20:21;3.00;2.00;2.00
76784;PMS7003;66893;44.316;0.092;2023-08-20T01:28:58;3.50;2.00;2.00
76784;PMS7003;66893;44.316;0.092;2023-08-20T01:31:24;3.00;3.00;2.50
76784;PMS7003;66893;44.316;0.092;2023-08-20T01:33:51;2.00;2.00;2.00
76784;PMS7003;66893;44.316;0.092;2023-08-20T01:36:17;6.00;4.50;3.25
76784;PMS7003;66893;44.316;0.092;2023-08-20T01:38:43;3.25;3.25;2.00
76784;PMS7003;66893;44.316;0.092;2023-08-20T01:41:08;2.75;2.75;2.00
76784;PMS7003;66893;44.316;0.092;2023-08-20T01:43:34;4.00;4.00;2.50
76784;PMS7003;66893;44.316;0.092;2023-08-20T01:45:59;4.25;2.50;2.00
76784;PMS7003;66893;44.316;0.092;2023-08-20T01:48:25;2.50;2.50;2.00
76784;PMS7003;66893;44.316;0.092;2023-08-20T01:50:50;3.00;3.00;2.00
76784;PMS7003;66893;44.316;0.092;2023-08-20T01:53:15;3.50;3.50;3.00
76784;PMS7003;66893;44.316;0.092;2023-08-20T01:55:41;3.75;3.75;2.25
76784;PMS7003;66893;44.316;0.092;2023-08-20T01:58:06;3.00;3.00;3.00
76784;PMS7003;66893;44.316;0.092;2023-08-20T02:00:32;5.00;3.00;2.50
76784;PMS7003;66893;44.316;0.092;2023-08-20T02:02:58;3.25;2.25;2.00
76784;PMS7003;66893;44.316;0.092;2023-08-20T02:05:24;2.00;2.00;2.00
76784;PMS7003;66893;44.316;0.092;2023-08-20T02:07:49;4.00;4.00;2.00
76784;PMS7003;66893;44.316;0.092;2023-08-20T02:10:15;5.00;5.00;3.00
76784;PMS7003;66893;44.316;0.092;2023-08-20T02:12:40;3.50;3.50;3.00
76784;PMS7003;66893;44.316;0.092;2023-08-20T02:15:06;2.25;2.25;2.00
76784;PMS7003;66893;44.316;0.092;2023-08-20T02:17:33;3.00;1.75;1.50
76784;PMS7003;66893;44.316;0.092;2023-08-20T02:20:00;4.00;1.75;1.25
76784;PMS7003;66893;44.316;0.092;2023-08-20T02:22:26;2.25;2.25;1.75
76784;PMS7003;66893;44.316;0.092;2023-08-20T02:24:54;4.25;2.00;2.00
76784;PMS7003;66893;44.316;0.092;2023-08-20T02:27:19;3.00;3.00;3.00
76784;PMS7003;66893;44.316;0.092;2023-08-20T02:29:45;4.00;3.25;2.00
76784;PMS7003;66893;44.316;0.092;2023-08-20T02:32:10;2.00;2.00;2.00
76784;PMS7003;66893;44.316;0.092;2023-08-20T02:34:36;3.00;3.00;2.00
76784;PMS7003;66893;44.316;0.092;2023-08-20T02:37:01;2.00;2.00;2.00
76784;PMS7003;66893;44.316;0.092;2023-08-20T02:39:26;2.25;2.25;2.00
76784;PMS7003;66893;44.316;0.092;2023-08-20T02:41:52;2.50;2.50;2.00
76784;PMS7003;66893;44.316;0.092;2023-08-20T02:44:17;2.00;2.00;1.25
76784;PMS7003;66893;44.316;0.092;2023-08-20T02:46:43;6.00;2.25;1.50
76784;PMS7003;66893;44.316;0.092;2023-08-20T02:49:09;2.00;2.00;1.75
76784;PMS7003;66893;44.316;0.092;2023-08-20T02:51:35;2.00;2.00;1.25
76784;PMS7003;66893;44.316;0.092;2023-08-20T02:54:01;3.50;2.00;2.00
76784;PMS7003;66893;44.316;0.092;2023-08-20T02:56:26;2.25;2.25;2.00
76784;PMS7003;66893;44.316;0.092;2023-08-20T02:58:51;4.25;4.00;3.25
76784;PMS7003;66893;44.316;0.092;2023-08-20T03:01:18;2.50;2.00;2.00
76784;PMS7003;66893;44.316;0.092;2023-08-20T03:03:44;2.00;2.00;2.00
76784;PMS7003;66893;44.316;0.092;2023-08-20T03:06:09;2.25;2.25;2.00
76784;PMS7003;66893;44.316;0.092;2023-08-20T03:08:35;2.00;2.00;2.00
76784;PMS7003;66893;44.316;0.092;2023-08-20T03:11:00;2.00;2.00;1.25
76784;PMS7003;66893;44.316;0.092;2023-08-20T03:13:26;1.75;1.75;1.50
76784;PMS7003;66893;44.316;0.092;2023-08-20T03:15:51;3.00;3.00;2.00
76784;PMS7003;66893;44.316;0.092;2023-08-20T03:18:17;3.00;3.00;2.00
76784;PMS7003;66893;44.316;0.092;2023-08-20T03:20:42;1.25;1.25;1.00
76784;PMS7003;66893;44.316;0.092;2023-08-20T03:23:07;2.00;2.00;2.00
76784;PMS7003;66893;44.316;0.092;2023-08-20T03:25:33;3.25;3.00;2.00
76784;PMS7003;66893;44.316;0.092;2023-08-20T03:27:58;2.00;2.00;2.00
76784;PMS7003;66893;44.316;0.092;2023-08-20T03:30:24;2.00;2.00;1.25
76784;PMS7003;66893;44.316;0.092;2023-08-20T03:32:49;2.00;2.00;2.00
76784;PMS7003;66893;44.316;0.092;2023-08-20T03:35:15;4.25;2.25;2.00
76784;PMS7003;66893;44.316;0.092;2023-08-20T03:37:41;2.00;2.00;2.00
76784;PMS7003;66893;44.316;0.092;2023-08-20T03:40:06;2.00;1.25;1.00
76784;PMS7003;66893;44.316;0.092;2023-08-20T03:42:32;2.00;2.00;1.75
76784;PMS7003;66893;44.316;0.092;2023-08-20T03:44:58;2.50;2.50;2.00
76784;PMS7003;66893;44.316;0.092;2023-08-20T03:47:23;3.00;3.00;2.00
76784;PMS7003;66893;44.316;0.092;2023-08-20T03:49:49;2.25;2.25;2.25
76784;PMS7003;66893;44.316;0.092;2023-08-20T03:52:14;3.00;3.00;3.00
76784;PMS7003;66893;44.316;0.092;2023-08-20T03:54:40;2.00;2.00;2.00
76784;PMS7003;66893;44.316;0.092;2023-08-20T03:57:05;2.00;2.00;2.00
76784;PMS7003;66893;44.316;0.092;2023-08-20T03:59:30;2.25;2.25;2.00
76784;PMS7003;66893;44.316;0.092;2023-08-20T04:01:56;2.50;2.50;2.00
76784;PMS7003;66893;44.316;0.092;2023-08-20T04:04:22;2.00;2.00;2.00
76784;PMS7003;66893;44.316;0.092;2023-08-20T04:06:47;2.00;2.00;2.00
76784;PMS7003;66893;44.316;0.092;2023-08-20T04:09:13;2.00;2.00;2.00
76784;PMS7003;66893;44.316;0.092;2023-08-20T04:11:38;3.00;2.00;2.00
76784;PMS7003;66893;44.316;0.092;2023-08-20T04:14:03;2.00;2.00;1.75
76784;PMS7003;66893;44.316;0.092;2023-08-20T04:16:29;3.00;3.00;3.00
76784;PMS7003;66893;44.316;0.092;2023-08-20T04:18:55;3.00;2.00;2.00
76784;PMS7003;66893;44.316;0.092;2023-08-20T04:21:21;3.00;3.00;2.00
76784;PMS7003;66893;44.316;0.092;2023-08-20T04:23:46;3.00;3.00;2.00
76784;PMS7003;66893;44.316;0.092;2023-08-20T04:26:12;3.75;2.75;2.50
76784;PMS7003;66893;44.316;0.092;2023-08-20T04:28:37;3.25;3.25;3.00
76784;PMS7003;66893;44.316;0.092;2023-08-20T04:31:03;2.75;2.75;2.25
76784;PMS7003;66893;44.316;0.092;2023-08-20T04:33:28;3.00;3.00;2.00
76784;PMS7003;66893;44.316;0.092;2023-08-20T04:35:54;3.50;3.50;3.00
76784;PMS7003;66893;44.316;0.092;2023-08-20T04:38:19;2.75;2.25;2.00
76784;PMS7003;66893;44.316;0.092;2023-08-20T04:40:48;3.00;3.00;3.00
76784;PMS7003;66893;44.316;0.092;2023-08-20T04:43:14;6.00;4.00;3.75
76784;PMS7003;66893;44.316;0.092;2023-08-20T04:45:40;2.75;2.75;2.00
76784;PMS7003;66893;44.316;0.092;2023-08-20T04:48:06;5.50;3.75;3.50
76784;PMS7003;66893;44.316;0.092;2023-08-20T04:50:32;1.00;1.00;1.00
76784;PMS7003;66893;44.316;0.092;2023-08-20T04:52:57;5.25;4.75;3.00
76784;PMS7003;66893;44.316;0.092;2023-08-20T04:55:26;5.00;4.25;3.50
76784;PMS7003;66893;44.316;0.092;2023-08-20T04:57:52;5.00;3.25;3.00
76784;PMS7003;66893;44.316;0.092;2023-08-20T05:00:18;4.75;3.00;3.00
76784;PMS7003;66893;44.316;0.092;2023-08-20T05:02:43;3.25;3.25;3.00
76784;PMS7003;66893;44.316;0.092;2023-08-20T05:05:09;3.75;3.75;2.50
76784;PMS7003;66893;44.316;0.092;2023-08-20T05:07:35;3.00;3.00;3.00
76784;PMS7003;66893;44.316;0.092;2023-08-20T05:10:01;5.00;3.50;3.00
76784;PMS7003;66893;44.316;0.092;2023-08-20T05:12:27;3.00;3.00;2.00
76784;PMS7003;66893;44.316;0.092;2023-08-20T05:14:52;4.25;4.25;4.00
76784;PMS7003;66893;44.316;0.092;2023-08-20T05:17:18;5.50;4.00;3.00
76784;PMS7003;66893;44.316;0.092;2023-08-20T05:19:43;3.00;3.00;3.00
76784;PMS7003;66893;44.316;0.092;2023-08-20T05:22:09;3.25;3.25;3.00
76784;PMS7003;66893;44.316;0.092;2023-08-20T05:24:36;4.00;4.00;3.25
76784;PMS7003;66893;44.316;0.092;2023-08-20T05:29:32;5.50;5.00;4.00
76784;PMS7003;66893;44.316;0.092;2023-08-20T05:31:58;4.00;3.00;3.00
76784;PMS7003;66893;44.316;0.092;2023-08-20T05:34:24;4.25;3.75;3.50
76784;PMS7003;66893;44.316;0.092;2023-08-20T05:36:49;3.00;3.00;2.50
76784;PMS7003;66893;44.316;0.092;2023-08-20T05:39:15;5.00;3.75;3.25
76784;PMS7003;66893;44.316;0.092;2023-08-20T05:41:40;6.00;5.00;4.00
76784;PMS7003;66893;44.316;0.092;2023-08-20T05:44:05;4.25;4.25;3.50
76784;PMS7003;66893;44.316;0.092;2023-08-20T05:46:31;6.00;5.25;4.00
76784;PMS7003;66893;44.316;0.092;2023-08-20T05:48:56;8.00;6.25;5.75
76784;PMS7003;66893;44.316;0.092;2023-08-20T05:51:22;6.00;6.00;5.00
76784;PMS7003;66893;44.316;0.092;2023-08-20T05:53:47;8.00;7.00;6.00
76784;PMS7003;66893;44.316;0.092;2023-08-20T05:56:12;6.00;6.00;5.00
76784;PMS7003;66893;44.316;0.092;2023-08-20T05:58:38;6.50;6.50;6.00
76784;PMS7003;66893;44.316;0.092;2023-08-20T06:01:03;9.25;7.50;5.00
76784;PMS7003;66893;44.316;0.092;2023-08-20T06:03:29;6.25;5.50;5.25
76784;PMS7003;66893;44.316;0.092;2023-08-20T06:05:56;8.25;7.00;6.00
76784;PMS7003;66893;44.316;0.092;2023-08-20T06:08:22;8.75;6.50;5.00
76784;PMS7003;66893;44.316;0.092;2023-08-20T06:10:48;6.75;6.75;6.00
76784;PMS7003;66893;44.316;0.092;2023-08-20T06:13:13;8.75;5.75;4.50
76784;PMS7003;66893;44.316;0.092;2023-08-20T06:15:39;7.00;7.00;6.00
76784;PMS7003;66893;44.316;0.092;2023-08-20T06:18:04;5.75;5.75;4.25
76784;PMS7003;66893;44.316;0.092;2023-08-20T06:20:30;8.50;8.00;6.25
76784;PMS7003;66893;44.316;0.092;2023-08-20T06:22:55;8.25;7.50;6.25
76784;PMS7003;66893;44.316;0.092;2023-08-20T06:25:20;7.25;6.25;5.75
76784;PMS7003;66893;44.316;0.092;2023-08-20T06:27:46;7.50;6.75;6.00
76784;PMS7003;66893;44.316;0.092;2023-08-20T06:30:13;10.00;9.00;6.00
76784;PMS7003;66893;44.316;0.092;2023-08-20T06:32:38;9.25;7.00;6.00
76784;PMS7003;66893;44.316;0.092;2023-08-20T06:35:04;8.50;7.00;6.00
76784;PMS7003;66893;44.316;0.092;2023-08-20T06:37:29;6.50;6.00;6.00
76784;PMS7003;66893;44.316;0.092;2023-08-20T06:39:55;8.50;8.50;6.00
76784;PMS7003;66893;44.316;0.092;2023-08-20T06:42:20;9.00;8.50;6.00
76784;PMS7003;66893;44.316;0.092;2023-08-20T06:44:46;6.50;5.00;4.00
76784;PMS7003;66893;44.316;0.092;2023-08-20T06:47:11;4.00;4.00;3.75
76784;PMS7003;66893;44.316;0.092;2023-08-20T06:49:37;5.00;4.25;3.25
76784;PMS7003;66893;44.316;0.092;2023-08-20T06:52:02;6.00;6.00;5.25
76784;PMS7003;66893;44.316;0.092;2023-08-20T06:54:28;7.00;7.00;6.00
76784;PMS7003;66893;44.316;0.092;2023-08-20T06:56:53;5.75;5.25;4.50
76784;PMS7003;66893;44.316;0.092;2023-08-20T06:59:19;6.00;6.00;5.00
76784;PMS7003;66893;44.316;0.092;2023-08-20T07:01:44;6.00;6.00;4.75
76784;PMS7003;66893;44.316;0.092;2023-08-20T07:04:09;8.50;6.75;5.00
76784;PMS7003;66893;44.316;0.092;2023-08-20T07:06:35;7.00;6.50;5.00
76784;PMS7003;66893;44.316;0.092;2023-08-20T07:09:00;8.25;7.25;6.00
76784;PMS7003;66893;44.316;0.092;2023-08-20T07:11:26;7.00;7.00;5.75
76784;PMS7003;66893;44.316;0.092;2023-08-20T07:13:51;6.00;6.00;5.00
76784;PMS7003;66893;44.316;0.092;2023-08-20T07:16:17;8.00;6.00;5.25
76784;PMS7003;66893;44.316;0.092;2023-08-20T07:18:42;5.25;5.25;4.25
76784;PMS7003;66893;44.316;0.092;2023-08-20T07:21:07;7.00;7.00;5.00
76784;PMS7003;66893;44.316;0.092;2023-08-20T07:23:33;5.50;5.50;4.50
76784;PMS7003;66893;44.316;0.092;2023-08-20T07:26:06;5.75;5.75;5.00
76784;PMS7003;66893;44.316;0.092;2023-08-20T07:28:33;5.00;5.00;4.00
76784;PMS7003;66893;44.316;0.092;2023-08-20T07:31:18;7.25;6.00;5.00
76784;PMS7003;66893;44.316;0.092;2023-08-20T07:33:47;5.00;5.00;4.00
76784;PMS7003;66893;44.316;0.092;2023-08-20T07:36:13;5.50;5.50;4.25
76784;PMS7003;66893;44.316;0.092;2023-08-20T07:38:39;6.00;6.00;4.25
76784;PMS7003;66893;44.316;0.092;2023-08-20T07:41:06;6.00;6.00;5.00
76784;PMS7003;66893;44.316;0.092;2023-08-20T07:43:32;5.25;5.25;5.00
76784;PMS7003;66893;44.316;0.092;2023-08-20T07:45:57;4.25;4.25;3.25
76784;PMS7003;66893;44.316;0.092;2023-08-20T07:48:23;6.00;5.75;4.25
76784;PMS7003;66893;44.316;0.092;2023-08-20T07:50:48;5.00;4.25;3.50
76784;PMS7003;66893;44.316;0.092;2023-08-20T07:53:14;6.00;5.50;4.00
76784;PMS7003;66893;44.316;0.092;2023-08-20T07:55:39;4.25;4.25;3.75
76784;PMS7003;66893;44.316;0.092;2023-08-20T07:58:04;7.00;6.75;4.25
76784;PMS7003;66893;44.316;0.092;2023-08-20T08:00:30;5.75;4.25;4.00
76784;PMS7003;66893;44.316;0.092;2023-08-20T08:02:55;5.00;5.00;4.50
76784;PMS7003;66893;44.316;0.092;2023-08-20T08:05:21;4.00;4.00;3.25
76784;PMS7003;66893;44.316;0.092;2023-08-20T08:07:46;7.25;6.00;4.25
76784;PMS7003;66893;44.316;0.092;2023-08-20T08:10:12;4.50;4.50;3.75
76784;PMS7003;66893;44.316;0.092;2023-08-20T08:12:37;7.50;6.00;5.00
76784;PMS7003;66893;44.316;0.092;2023-08-20T08:15:03;4.00;4.00;3.00
76784;PMS7003;66893;44.316;0.092;2023-08-20T08:17:28;5.00;4.00;2.00
76784;PMS7003;66893;44.316;0.092;2023-08-20T08:19:53;5.00;5.00;4.00
76784;PMS7003;66893;44.316;0.092;2023-08-20T08:22:20;4.75;4.25;3.50
76784;PMS7003;66893;44.316;0.092;2023-08-20T08:24:46;7.75;5.25;4.75
76784;PMS7003;66893;44.316;0.092;2023-08-20T08:27:11;5.25;4.00;3.50
76784;PMS7003;66893;44.316;0.092;2023-08-20T08:29:37;4.75;4.00;4.00
76784;PMS7003;66893;44.316;0.092;2023-08-20T08:32:02;8.00;6.75;5.00
76784;PMS7003;66893;44.316;0.092;2023-08-20T08:34:28;6.75;6.75;4.75
76784;PMS7003;66893;44.316;0.092;2023-08-20T08:36:53;6.50;5.00;4.25
76784;PMS7003;66893;44.316;0.092;2023-08-20T08:39:18;4.00;4.00;3.00
76784;PMS7003;66893;44.316;0.092;2023-08-20T08:41:44;4.50;4.50;3.50
76784;PMS7003;66893;44.316;0.092;2023-08-20T08:44:15;5.00;5.00;3.75
76784;PMS7003;66893;44.316;0.092;2023-08-20T08:46:42;5.25;4.75;4.00
76784;PMS7003;66893;44.316;0.092;2023-08-20T08:49:08;5.25;5.00;4.00
76784;PMS7003;66893;44.316;0.092;2023-08-20T08:51:34;6.25;5.50;5.00
76784;PMS7003;66893;44.316;0.092;2023-08-20T08:54:01;5.00;5.00;4.00
76784;PMS7003;66893;44.316;0.092;2023-08-20T08:56:27;8.50;6.00;4.25
76784;PMS7003;66893;44.316;0.092;2023-08-20T08:58:53;8.00;5.50;4.50
76784;PMS7003;66893;44.316;0.092;2023-08-20T09:01:19;4.50;3.75;3.75
76784;PMS7003;66893;44.316;0.092;2023-08-20T09:03:45;7.00;5.00;5.00
76784;PMS7003;66893;44.316;0.092;2023-08-20T09:06:12;6.75;6.00;4.00
76784;PMS7003;66893;44.316;0.092;2023-08-20T09:08:37;5.50;5.00;3.25
76784;PMS7003;66893;44.316;0.092;2023-08-20T09:11:03;5.50;5.00;4.00
76784;PMS7003;66893;44.316;0.092;2023-08-20T09:13:41;6.00;6.00;4.50
76784;PMS7003;66893;44.316;0.092;2023-08-20T09:16:09;4.00;4.00;3.00
76784;PMS7003;66893;44.316;0.092;2023-08-20T09:18:39;4.75;4.75;4.25
76784;PMS7003;66893;44.316;0.092;2023-08-20T09:21:08;4.25;4.25;3.75
76784;PMS7003;66893;44.316;0.092;2023-08-20T09:23:35;6.00;4.50;3.50
76784;PMS7003;66893;44.316;0.092;2023-08-20T09:26:02;4.00;3.00;2.75
76784;PMS7003;66893;44.316;0.092;2023-08-20T09:28:29;3.75;3.25;3.00
76784;PMS7003;66893;44.316;0.092;2023-08-20T09:31:05;3.25;3.25;2.50
76784;PMS7003;66893;44.316;0.092;2023-08-20T09:33:30;5.00;4.00;3.00
76784;PMS7003;66893;44.316;0.092;2023-08-20T09:35:55;5.50;4.75;4.00
76784;PMS7003;66893;44.316;0.092;2023-08-20T09:38:21;7.00;5.50;5.00
76784;PMS7003;66893;44.316;0.092;2023-08-20T09:40:49;6.00;5.50;4.00
76784;PMS7003;66893;44.316;0.092;2023-08-20T09:43:21;4.25;4.25;4.00
76784;PMS7003;66893;44.316;0.092;2023-08-20T09:45:53;7.25;5.25;4.25
76784;PMS7003;66893;44.316;0.092;2023-08-20T09:48:20;6.00;3.25;3.00
76784;PMS7003;66893;44.316;0.092;2023-08-20T09:50:48;4.25;4.25;3.00
76784;PMS7003;66893;44.316;0.092;2023-08-20T09:53:26;5.50;4.00;3.00
76784;PMS7003;66893;44.316;0.092;2023-08-20T09:56:00;4.00;4.00;3.00
76784;PMS7003;66893;44.316;0.092;2023-08-20T09:58:59;4.00;4.00;3.00
76784;PMS7003;66893;44.316;0.092;2023-08-20T10:01:26;4.00;4.00;4.00
76784;PMS7003;66893;44.316;0.092;2023-08-20T10:03:53;6.50;5.00;4.00
76784;PMS7003;66893;44.316;0.092;2023-08-20T10:06:19;4.00;4.00;3.00
76784;PMS7003;66893;44.316;0.092;2023-08-20T10:08:45;4.00;4.00;3.00
76784;PMS7003;66893;44.316;0.092;2023-08-20T10:11:12;4.00;4.00;3.00
76784;PMS7003;66893;44.316;0.092;2023-08-20T10:13:37;4.50;4.50;3.75
76784;PMS7003;66893;44.316;0.092;2023-08-20T10:16:04;6.00;6.00;4.00
76784;PMS7003;66893;44.316;0.092;2023-08-20T10:18:29;3.50;3.00;3.00
76784;PMS7003;66893;44.316;0.092;2023-08-20T10:20:57;4.00;3.00;2.75
76784;PMS7003;66893;44.316;0.092;2023-08-20T10:23:24;7.00;4.00;3.00
76784;PMS7003;66893;44.316;0.092;2023-08-20T10:25:50;4.00;4.00;3.75
76784;PMS7003;66893;44.316;0.092;2023-08-20T10:28:26;5.50;4.00;3.00
76784;PMS7003;66893;44.316;0.092;2023-08-20T10:31:02;3.00;3.00;3.00
76784;PMS7003;66893;44.316;0.092;2023-08-20T10:33:35;5.00;4.25;3.75
76784;PMS7003;66893;44.316;0.092;2023-08-20T10:36:17;4.75;3.75;3.00
76784;PMS7003;66893;44.316;0.092;2023-08-20T10:38:47;3.25;3.00;2.75
76784;PMS7003;66893;44.316;0.092;2023-08-20T10:41:14;3.00;3.00;2.75
76784;PMS7003;66893;44.316;0.092;2023-08-20T10:43:48;2.25;2.25;1.75
76784;PMS7003;66893;44.316;0.092;2023-08-20T10:46:18;3.75;3.00;2.25
76784;PMS7003;66893;44.316;0.092;2023-08-20T10:48:47;4.00;3.00;2.75
76784;PMS7003;66893;44.316;0.092;2023-08-20T10:51:17;3.50;3.50;3.00
76784;PMS7003;66893;44.316;0.092;2023-08-20T10:59:25;3.25;3.25;2.75
76784;PMS7003;66893;44.316;0.092;2023-08-20T11:01:56;3.00;3.00;3.00
76784;PMS7003;66893;44.316;0.092;2023-08-20T11:04:25;4.00;3.00;3.00
76784;PMS7003;66893;44.316;0.092;2023-08-20T11:06:54;4.00;2.50;2.00
76784;PMS7003;66893;44.316;0.092;2023-08-20T11:09:22;3.75;3.25;3.00
76784;PMS7003;66893;44.316;0.092;2023-08-20T11:11:49;3.00;3.00;2.75
76784;PMS7003;66893;44.316;0.092;2023-08-20T11:14:17;3.00;3.00;3.00
76784;PMS7003;66893;44.316;0.092;2023-08-20T11:16:44;7.25;4.25;4.00
76784;PMS7003;66893;44.316;0.092;2023-08-20T11:19:11;4.00;4.00;2.75
76784;PMS7003;66893;44.316;0.092;2023-08-20T11:21:43;1.25;1.25;1.25
76784;PMS7003;66893;44.316;0.092;2023-08-20T11:24:09;5.00;5.00;4.00
76784;PMS7003;66893;44.316;0.092;2023-08-20T11:26:36;5.00;4.50;3.75
76784;PMS7003;66893;44.316;0.092;2023-08-20T11:29:07;2.25;2.25;2.00
76784;PMS7003;66893;44.316;0.092;2023-08-20T11:31:44;4.00;2.00;2.00
76784;PMS7003;66893;44.316;0.092;2023-08-20T11:34:11;8.00;5.00;4.00
76784;PMS7003;66893;44.316;0.092;2023-08-20T11:36:38;5.50;4.00;2.00
76784;PMS7003;66893;44.316;0.092;2023-08-20T11:39:04;7.00;3.75;3.00
76784;PMS7003;66893;44.316;0.092;2023-08-20T11:41:31;5.50;4.50;3.50
76784;PMS7003;66893;44.316;0.092;2023-08-20T11:44:00;6.00;3.25;3.00
76784;PMS7003;66893;44.316;0.092;2023-08-20T11:46:25;6.25;4.25;2.25
76784;PMS7003;66893;44.316;0.092;2023-08-20T11:49:01;6.25;5.25;4.00
76784;PMS7003;66893;44.316;0.092;2023-08-20T11:51:49;7.25;4.00;2.25
76784;PMS7003;66893;44.316;0.092;2023-08-20T11:54:15;4.00;4.00;3.00
76784;PMS7003;66893;44.316;0.092;2023-08-20T11:56:51;6.00;5.00;4.25
76784;PMS7003;66893;44.316;0.092;2023-08-20T11:59:18;4.75;3.00;2.25
76784;PMS7003;66893;44.316;0.092;2023-08-20T12:01:50;3.50;3.50;3.00
76784;PMS7003;66893;44.316;0.092;2023-08-20T12:04:16;2.25;2.25;2.00
76784;PMS7003;66893;44.316;0.092;2023-08-20T12:06:42;4.00;4.00;3.00
76784;PMS7003;66893;44.316;0.092;2023-08-20T12:09:20;3.25;3.00;3.00
76784;PMS7003;66893;44.316;0.092;2023-08-20T12:11:50;4.25;4.00;3.00
76784;PMS7003;66893;44.316;0.092;2023-08-20T12:14:17;3.50;2.75;2.25
76784;PMS7003;66893;44.316;0.092;2023-08-20T12:16:43;6.00;3.75;3.00
76784;PMS7003;66893;44.316;0.092;2023-08-20T12:19:09;3.25;3.25;2.75
76784;PMS7003;66893;44.316;0.092;2023-08-20T12:21:34;3.25;3.00;2.00
76784;PMS7003;66893;44.316;0.092;2023-08-20T12:24:00;5.00;3.25;2.25
76784;PMS7003;66893;44.316;0.092;2023-08-20T12:26:25;3.00;3.00;3.00
76784;PMS7003;66893;44.316;0.092;2023-08-20T12:28:51;5.00;3.00;2.00
76784;PMS7003;66893;44.316;0.092;2023-08-20T12:31:16;3.00;3.00;2.50
76784;PMS7003;66893;44.316;0.092;2023-08-20T12:33:42;2.00;2.00;1.75
76784;PMS7003;66893;44.316;0.092;2023-08-20T12:36:08;3.00;3.00;2.00
76784;PMS7003;66893;44.316;0.092;2023-08-20T12:38:33;3.00;3.00;2.00
76784;PMS7003;66893;44.316;0.092;2023-08-20T12:41:00;3.00;3.00;3.00
76784;PMS7003;66893;44.316;0.092;2023-08-20T12:43:26;2.00;2.00;2.00
76784;PMS7003;66893;44.316;0.092;2023-08-20T12:45:52;6.00;3.50;3.00
76784;PMS7003;66893;44.316;0.092;2023-08-20T12:48:17;4.25;3.00;2.00
76784;PMS7003;66893;44.316;0.092;2023-08-20T12:50:42;4.75;3.25;2.75
76784;PMS7003;66893;44.316;0.092;2023-08-20T12:53:08;4.25;3.00;2.00
76784;PMS7003;66893;44.316;0.092;2023-08-20T12:55:33;3.25;3.25;2.25
76784;PMS7003;66893;44.316;0.092;2023-08-20T12:57:59;3.50;2.25;1.75
76784;PMS7003;66893;44.316;0.092;2023-08-20T13:00:25;2.50;2.50;2.50
76784;PMS7003;66893;44.316;0.092;2023-08-20T13:02:51;4.50;3.00;2.50
76784;PMS7003;66893;44.316;0.092;2023-08-20T13:05:18;4.50;3.50;2.25
76784;PMS7003;66893;44.316;0.092;2023-08-20T13:07:44;3.00;3.00;2.25
76784;PMS7003;66893;44.316;0.092;2023-08-20T13:10:10;3.00;2.25;2.00
76784;PMS7003;66893;44.316;0.092;2023-08-20T13:12:36;3.00;3.00;2.25
76784;PMS7003;66893;44.316;0.092;2023-08-20T13:15:03;2.25;2.25;2.00
76784;PMS7003;66893;44.316;0.092;2023-08-20T13:17:29;5.00;3.00;2.25
76784;PMS7003;66893;44.316;0.092;2023-08-20T13:19:55;2.00;2.00;2.00
76784;PMS7003;66893;44.316;0.092;2023-08-20T13:22:21;3.00;2.00;1.00
76784;PMS7003;66893;44.316;0.092;2023-08-20T13:24:47;2.00;2.00;2.00
76784;PMS7003;66893;44.316;0.092;2023-08-20T13:27:12;4.50;2.00;1.75
76784;PMS7003;66893;44.316;0.092;2023-08-20T13:29:38;3.00;3.00;2.00
76784;PMS7003;66893;44.316;0.092;2023-08-20T13:32:03;3.00;3.00;3.00
76784;PMS7003;66893;44.316;0.092;2023-08-20T13:34:29;3.00;2.25;2.00
76784;PMS7003;66893;44.316;0.092;2023-08-20T13:36:54;2.00;2.00;1.75
76784;PMS7003;66893;44.316;0.092;2023-08-20T13:39:19;3.25;2.00;1.75
76784;PMS7003;66893;44.316;0.092;2023-08-20T13:41:46;2.00;2.00;2.00
76784;PMS7003;66893;44.316;0.092;2023-08-20T13:44:14;2.00;2.00;2.00
76784;PMS7003;66893;44.316;0.092;2023-08-20T13:46:39;2.50;2.50;2.00
76784;PMS7003;66893;44.316;0.092;2023-08-20T13:49:05;2.25;2.25;2.00
76784;PMS7003;66893;44.316;0.092;2023-08-20T13:51:30;1.00;1.00;1.00
76784;PMS7003;66893;44.316;0.092;2023-08-20T13:53:56;2.25;2.25;2.00
76784;PMS7003;66893;44.316;0.092;2023-08-20T13:56:22;2.00;2.00;1.50
76784;PMS7003;66893;44.316;0.092;2023-08-20T13:58:47;1.50;1.50;1.25
76784;PMS7003;66893;44.316;0.092;2023-08-20T14:01:13;2.00;2.00;2.00
76784;PMS7003;66893;44.316;0.092;2023-08-20T14:03:38;2.50;2.50;2.00
76784;PMS7003;66893;44.316;0.092;2023-08-20T14:06:04;4.50;2.50;2.00
76784;PMS7003;66893;44.316;0.092;2023-08-20T14:08:30;2.50;1.00;1.00
76784;PMS7003;66893;44.316;0.092;2023-08-20T14:10:56;3.25;2.00;1.75
76784;PMS7003;66893;44.316;0.092;2023-08-20T14:13:21;1.50;1.50;1.50
76784;PMS7003;66893;44.316;0.092;2023-08-20T14:15:46;2.25;2.25;2.00
76784;PMS7003;66893;44.316;0.092;2023-08-20T14:18:12;2.25;1.25;1.00
76784;PMS7003;66893;44.316;0.092;2023-08-20T14:20:37;1.25;1.25;1.00
76784;PMS7003;66893;44.316;0.092;2023-08-20T14:23:03;1.50;1.50;1.50
76784;PMS7003;66893;44.316;0.092;2023-08-20T14:25:29;1.75;1.00;1.00
76784;PMS7003;66893;44.316;0.092;2023-08-20T14:27:54;2.00;2.00;1.00
76784;PMS7003;66893;44.316;0.092;2023-08-20T14:30:20;3.00;3.00;2.00
76784;PMS7003;66893;44.316;0.092;2023-08-20T14:32:45;4.75;2.00;2.00
76784;PMS7003;66893;44.316;0.092;2023-08-20T14:35:11;3.00;2.25;1.25
76784;PMS7003;66893;44.316;0.092;2023-08-20T14:37:37;0.75;0.75;0.75
76784;PMS7003;66893;44.316;0.092;2023-08-20T14:40:02;1.50;1.50;1.00